Time,TemperatureF,DewpointF,PressureIn,WindDirection,WindDirectionDegrees,WindSpeedMPH,WindSpeedGustMPH,Humidity,HourlyPrecipIn,Conditions,Clouds,dailyrainin,SoftwareType,DateUTC
2017-03-27 00:00:00,34.7,34.2,30.01,NE,34,0.0,1.0,98,0.00,,,0.00,Wunderground v.1.15,2017-03-27 07:00:00,
2017-03-27 00:06:00,35.1,34.6,30.01,NNE,27,1.0,1.0,98,0.00,,,0.00,Wunderground v.1.15,2017-03-27 07:06:00,
2017-03-27 00:12:00,34.9,34.4,30.01,South,179,0.0,3.0,98,0.00,,,0.00,Wunderground v.1.15,2017-03-27 07:12:00,
2017-03-27 00:17:00,35.0,34.5,30.01,South,186,0.0,3.0,98,0.00,,,0.00,Wunderground v.1.15,2017-03-27 07:17:00,
2017-03-27 00:23:00,34.7,34.2,30.01,West,280,1.0,2.0,98,0.00,,,0.00,Wunderground v.1.15,2017-03-27 07:23:00,
2017-03-27 00:29:00,34.0,33.5,30.01,WSW,253,1.0,2.0,98,0.00,,,0.00,Wunderground v.1.15,2017-03-27 07:29:00,
2017-03-27 00:34:00,34.1,33.6,30.01,West,270,1.0,2.0,98,0.00,,,0.00,Wunderground v.1.15,2017-03-27 07:34:00,
2017-03-27 00:41:00,34.3,33.8,30.01,West,269,0.0,1.0,98,0.00,,,0.00,Wunderground v.1.15,2017-03-27 07:41:00,
2017-03-27 00:47:00,34.3,33.8,30.01,ENE,60,0.0,1.0,98,0.00,,,0.00,Wunderground v.1.15,2017-03-27 07:47:00,
2017-03-27 00:53:00,33.8,33.3,30.01,NNW,346,1.0,3.0,98,0.00,,,0.00,Wunderground v.1.15,2017-03-27 07:53:00,
2017-03-27 00:59:00,33.9,33.4,30.02,NE,34,2.0,3.0,98,0.00,,,0.00,Wunderground v.1.15,2017-03-27 07:59:00,
2017-03-27 01:04:00,34.3,34.0,30.02,NNE,29,2.0,4.0,99,0.00,,,0.00,Wunderground v.1.15,2017-03-27 08:04:00,
2017-03-27 01:10:00,34.5,34.2,30.03,NNE,29,1.0,4.0,99,0.00,,,0.00,Wunderground v.1.15,2017-03-27 08:10:00,
2017-03-27 01:15:00,34.5,34.2,30.02,NE,47,0.0,4.0,99,0.00,,,0.00,Wunderground v.1.15,2017-03-27 08:15:00,
2017-03-27 01:21:00,34.1,33.6,30.03,ENE,73,0.0,4.0,98,0.00,,,0.00,Wunderground v.1.15,2017-03-27 08:21:00,
2017-03-27 01:27:00,33.9,33.4,30.03,NE,37,0.0,4.0,98,0.00,,,0.00,Wunderground v.1.15,2017-03-27 08:27:00,
2017-03-27 01:33:00,33.7,33.2,30.03,East,82,0.0,4.0,98,0.00,,,0.00,Wunderground v.1.15,2017-03-27 08:33:00,
2017-03-27 01:38:00,33.3,32.8,30.03,East,82,0.0,4.0,98,0.00,,,0.00,Wunderground v.1.15,2017-03-27 08:38:00,
2017-03-27 01:44:00,33.4,32.9,30.03,ESE,115,0.0,4.0,98,0.00,,,0.00,Wunderground v.1.15,2017-03-27 08:44:00,
2017-03-27 01:49:00,33.2,32.7,30.03,ESE,116,0.0,4.0,98,0.00,,,0.00,Wunderground v.1.15,2017-03-27 08:49:00,
2017-03-27 01:54:00,33.1,32.6,30.04,North,9,0.0,4.0,98,0.00,,,0.00,Wunderground v.1.15,2017-03-27 08:54:00,
2017-03-27 02:00:00,33.1,32.6,30.04,NW,304,1.0,4.0,98,0.00,,,0.00,Wunderground v.1.15,2017-03-27 09:00:00,
2017-03-27 02:06:00,32.9,32.4,30.05,WNW,284,2.0,4.0,98,0.00,,,0.00,Wunderground v.1.15,2017-03-27 09:06:00,
2017-03-27 02:12:00,33.1,32.9,30.05,ESE,106,1.0,4.0,99,0.00,,,0.00,Wunderground v.1.15,2017-03-27 09:12:00,
2017-03-27 02:17:00,33.2,33.0,30.05,North,349,0.0,4.0,99,0.00,,,0.00,Wunderground v.1.15,2017-03-27 09:17:00,
2017-03-27 02:21:00,32.9,32.7,30.05,NNW,335,1.0,4.0,99,0.00,,,0.00,Wunderground v.1.15,2017-03-27 09:21:00,
2017-03-27 02:27:00,33.0,32.8,30.05,NNW,336,0.0,4.0,99,0.00,,,0.00,Wunderground v.1.15,2017-03-27 09:27:00,
2017-03-27 02:33:00,33.0,32.8,30.05,NE,54,0.0,4.0,99,0.00,,,0.00,Wunderground v.1.15,2017-03-27 09:33:00,
2017-03-27 02:39:00,32.5,32.3,30.05,East,80,0.0,4.0,99,0.00,,,0.00,Wunderground v.1.15,2017-03-27 09:39:00,
2017-03-27 02:45:00,32.3,32.1,30.05,East,81,0.0,4.0,99,0.00,,,0.00,Wunderground v.1.15,2017-03-27 09:45:00,
2017-03-27 02:50:00,32.3,32.1,30.05,East,81,0.0,4.0,99,0.00,,,0.00,Wunderground v.1.15,2017-03-27 09:50:00,
2017-03-27 02:56:00,32.2,32.0,30.06,East,81,0.0,4.0,99,0.00,,,0.00,Wunderground v.1.15,2017-03-27 09:56:00,
2017-03-27 03:01:00,32.2,32.0,30.06,NW,309,0.0,4.0,99,0.00,,,0.00,Wunderground v.1.15,2017-03-27 10:01:00,
2017-03-27 03:07:00,32.4,32.2,30.06,NW,309,0.0,4.0,99,0.00,,,0.00,Wunderground v.1.15,2017-03-27 10:07:00,
2017-03-27 03:12:00,32.8,32.6,30.06,NW,307,0.0,4.0,99,0.00,,,0.00,Wunderground v.1.15,2017-03-27 10:12:00,
2017-03-27 03:17:00,33.0,32.8,30.07,NW,307,0.0,4.0,99,0.00,,,0.00,Wunderground v.1.15,2017-03-27 10:17:00,
2017-03-27 03:23:00,33.3,33.0,30.07,SE,129,1.0,4.0,99,0.00,,,0.00,Wunderground v.1.15,2017-03-27 10:23:00,
2017-03-27 03:28:00,33.5,33.2,30.06,East,99,2.0,4.0,99,0.00,,,0.00,Wunderground v.1.15,2017-03-27 10:28:00,
2017-03-27 03:33:00,33.4,33.1,30.06,East,98,2.0,4.0,99,0.00,,,0.00,Wunderground v.1.15,2017-03-27 10:33:00,
2017-03-27 03:39:00,33.2,33.0,30.06,East,92,1.0,4.0,99,0.00,,,0.00,Wunderground v.1.15,2017-03-27 10:39:00,
2017-03-27 03:45:00,33.1,32.9,30.06,East,84,1.0,4.0,99,0.00,,,0.00,Wunderground v.1.15,2017-03-27 10:45:00,
2017-03-27 03:51:00,32.9,32.7,30.06,East,82,0.0,4.0,99,0.00,,,0.00,Wunderground v.1.15,2017-03-27 10:51:00,
2017-03-27 03:57:00,32.9,32.7,30.06,SE,129,0.0,4.0,99,0.00,,,0.00,Wunderground v.1.15,2017-03-27 10:57:00,
2017-03-27 04:03:00,33.3,33.0,30.06,SE,127,0.0,4.0,99,0.00,,,0.00,Wunderground v.1.15,2017-03-27 11:03:00,
2017-03-27 04:08:00,33.4,33.1,30.06,SSE,159,0.0,4.0,99,0.00,,,0.00,Wunderground v.1.15,2017-03-27 11:08:00,
2017-03-27 04:14:00,33.6,33.3,30.06,SSE,159,0.0,4.0,99,0.00,,,0.00,Wunderground v.1.15,2017-03-27 11:14:00,
2017-03-27 04:20:00,33.6,33.3,30.06,SSE,159,0.0,4.0,99,0.00,,,0.00,Wunderground v.1.15,2017-03-27 11:20:00,
2017-03-27 04:25:00,33.6,33.3,30.06,SSE,159,0.0,4.0,99,0.00,,,0.00,Wunderground v.1.15,2017-03-27 11:25:00,
2017-03-27 04:31:00,33.5,33.2,30.06,SW,215,0.0,4.0,99,0.00,,,0.00,Wunderground v.1.15,2017-03-27 11:31:00,
2017-03-27 04:37:00,33.6,33.3,30.06,SW,233,0.0,4.0,99,0.00,,,0.00,Wunderground v.1.15,2017-03-27 11:37:00,
2017-03-27 04:42:00,33.6,33.3,30.06,SW,233,0.0,4.0,99,0.00,,,0.00,Wunderground v.1.15,2017-03-27 11:42:00,
2017-03-27 04:48:00,33.7,33.4,30.06,SW,233,0.0,4.0,99,0.00,,,0.00,Wunderground v.1.15,2017-03-27 11:48:00,
2017-03-27 04:54:00,33.7,33.4,30.07,NNW,345,0.0,4.0,99,0.00,,,0.00,Wunderground v.1.15,2017-03-27 11:54:00,
2017-03-27 04:59:00,33.8,33.5,30.07,NNE,33,1.0,4.0,99,0.00,,,0.00,Wunderground v.1.15,2017-03-27 11:59:00,